createdAt,value
2019-02-25T00:01:48.735Z,-0.50
2019-02-25T00:04:18.977Z,-0.55
2019-02-25T00:06:49.185Z,-0.49
2019-02-25T00:09:19.441Z,-0.55
2019-02-25T00:11:49.647Z,-0.56
2019-02-25T00:14:19.897Z,-0.61
2019-02-25T00:16:50.085Z,-0.62
2019-02-25T00:19:20.348Z,-0.55
2019-02-25T00:21:50.549Z,-0.55
2019-02-25T00:24:20.796Z,-0.63
2019-02-25T00:26:51.025Z,-0.49
2019-02-25T00:29:21.260Z,-0.60
2019-02-25T00:31:51.484Z,-0.55
2019-02-25T00:34:21.727Z,-0.49
2019-02-25T00:36:51.960Z,-0.52
2019-02-25T00:39:22.211Z,-0.60
2019-02-25T00:41:52.324Z,-0.43
2019-02-25T00:44:22.593Z,-0.48
2019-02-25T00:46:52.797Z,-0.46
2019-02-25T00:49:22.992Z,-0.56
2019-02-25T00:51:53.186Z,-0.51
2019-02-25T00:54:23.460Z,-0.62
2019-02-25T00:56:53.648Z,-0.48
2019-02-25T00:59:24.874Z,-0.44
2019-02-25T01:01:55.080Z,-0.50
2019-02-25T01:04:25.260Z,-0.44
2019-02-25T01:06:55.462Z,-0.47
2019-02-25T01:09:25.708Z,-0.46
2019-02-25T01:11:55.820Z,-0.50
2019-02-25T01:14:25.993Z,-0.40
2019-02-25T01:16:56.122Z,-0.46
2019-02-25T01:19:26.225Z,-0.45
2019-02-25T01:21:56.430Z,-0.33
2019-02-25T01:24:26.661Z,-0.43
2019-02-25T01:26:56.794Z,-0.41
2019-02-25T01:29:27.053Z,-0.45
2019-02-25T01:31:57.173Z,-0.55
2019-02-25T01:34:27.414Z,-0.47
2019-02-25T01:36:57.607Z,-0.49
2019-02-25T01:39:27.800Z,-0.51
2019-02-25T01:41:58.005Z,-0.54
2019-02-25T01:44:28.176Z,-0.47
2019-02-25T01:46:58.327Z,-0.51
2019-02-25T01:49:28.482Z,-0.48
2019-02-25T01:51:58.672Z,-0.57
2019-02-25T01:54:28.767Z,-0.58
2019-02-25T01:56:58.905Z,-0.58
2019-02-25T01:59:30.033Z,-0.50
2019-02-25T02:02:00.175Z,-0.51
2019-02-25T02:04:30.345Z,-0.55
2019-02-25T02:07:00.470Z,-0.48
2019-02-25T02:09:30.719Z,-0.48
2019-02-25T02:12:00.785Z,-0.54
2019-02-25T02:14:31.014Z,-0.59
2019-02-25T02:17:01.207Z,-0.46
2019-02-25T02:19:31.474Z,-0.57
2019-02-25T02:22:01.679Z,-0.62
2019-02-25T02:24:31.862Z,-0.52
2019-02-25T02:27:02.000Z,-0.42
2019-02-25T02:29:32.257Z,-0.48
2019-02-25T02:32:02.475Z,-0.46
2019-02-25T02:34:32.720Z,-0.51
2019-02-25T02:37:02.860Z,-0.47
2019-02-25T02:39:33.119Z,-0.57
2019-02-25T02:42:17.904Z,-0.49
2019-02-25T02:44:50.372Z,-0.44
2019-02-25T02:47:23.525Z,-0.54
2019-02-25T02:49:53.711Z,-0.58
2019-02-25T02:52:23.905Z,-0.52
2019-02-25T02:54:54.145Z,-0.56
2019-02-25T02:57:24.355Z,-0.49
2019-02-25T02:59:55.652Z,-0.47
2019-02-25T03:02:25.877Z,-0.51
2019-02-25T03:04:56.121Z,-0.50
2019-02-25T03:07:26.306Z,-0.46
2019-02-25T03:09:58.800Z,-0.41
2019-02-25T03:12:28.443Z,-0.35
2019-02-25T03:14:58.669Z,-0.40
2019-02-25T03:17:28.868Z,-0.41
2019-02-25T03:19:59.100Z,-0.49
2019-02-25T03:22:29.397Z,-0.56
2019-02-25T03:24:59.561Z,-0.52
2019-02-25T03:27:29.763Z,-0.55
2019-02-25T03:29:59.920Z,-0.59
2019-02-25T03:32:30.086Z,-0.66
2019-02-25T03:35:00.321Z,-0.68
2019-02-25T03:37:30.420Z,-0.78
2019-02-25T03:40:00.602Z,-0.91
2019-02-25T03:42:30.775Z,-0.86
2019-02-25T03:45:00.860Z,-0.82
2019-02-25T03:47:30.911Z,-0.90
2019-02-25T03:50:01.092Z,-0.85
2019-02-25T03:52:31.213Z,-0.91
2019-02-25T03:55:01.410Z,-0.98
2019-02-25T03:57:31.588Z,-0.97
2019-02-25T04:00:02.689Z,-0.90
2019-02-25T04:02:32.810Z,-0.91
2019-02-25T04:05:03.070Z,-0.84
2019-02-25T04:07:33.257Z,-0.87
2019-02-25T04:10:04.506Z,-0.89
2019-02-25T04:12:34.705Z,-0.99
2019-02-25T04:15:08.145Z,-1.00
2019-02-25T04:17:38.316Z,-0.89
2019-02-25T04:20:13.730Z,-0.97
2019-02-25T04:22:43.953Z,-0.99
2019-02-25T04:25:14.589Z,-1.00
2019-02-25T04:27:44.802Z,-0.99
2019-02-25T04:30:16.162Z,-1.00
2019-02-25T04:32:46.295Z,-0.99
2019-02-25T04:35:16.553Z,-1.03
2019-02-25T04:37:46.764Z,-1.06
2019-02-25T04:40:17.033Z,-1.06
2019-02-25T04:42:47.215Z,-1.11
2019-02-25T04:45:21.229Z,-0.98
2019-02-25T04:47:51.610Z,-1.01
2019-02-25T04:50:21.852Z,-1.05
2019-02-25T04:52:52.068Z,-0.97
2019-02-25T04:55:22.317Z,-0.95
2019-02-25T04:57:52.511Z,-0.92
2019-02-25T05:00:25.850Z,-0.82
2019-02-25T05:02:56.053Z,-0.82
2019-02-25T05:05:26.298Z,-0.87
2019-02-25T05:07:56.434Z,-0.81
2019-02-25T05:10:26.684Z,-0.77
2019-02-25T05:12:58.448Z,-0.78
2019-02-25T05:15:30.290Z,-0.88
2019-02-25T05:18:00.489Z,-0.86
2019-02-25T05:20:30.720Z,-0.92
2019-02-25T05:23:00.940Z,-0.94
2019-02-25T05:25:31.193Z,-0.92
2019-02-25T05:28:01.318Z,-0.94
2019-02-25T05:30:31.555Z,-0.87
2019-02-25T05:33:01.734Z,-0.86
2019-02-25T05:35:31.919Z,-0.82
2019-02-25T05:38:01.947Z,-0.83
2019-02-25T05:40:32.126Z,-0.73
2019-02-25T05:43:02.301Z,-0.83
2019-02-25T05:45:32.539Z,-0.80
2019-02-25T05:48:02.738Z,-0.68
2019-02-25T05:50:32.911Z,-0.67
2019-02-25T05:53:02.966Z,-0.66
2019-02-25T05:55:33.138Z,-0.63
2019-02-25T05:58:03.363Z,-0.67
2019-02-25T06:00:35.649Z,-0.65
2019-02-25T06:03:05.700Z,-0.55
2019-02-25T06:05:38.405Z,-0.63
2019-02-25T06:08:08.501Z,-0.60
2019-02-25T06:10:38.599Z,-0.49
2019-02-25T06:13:08.776Z,-0.49
2019-02-25T06:15:38.909Z,-0.52
2019-02-25T06:18:09.044Z,-0.43
2019-02-25T06:20:39.209Z,-0.50
2019-02-25T06:23:09.394Z,-0.46
2019-02-25T06:25:39.929Z,-0.33
2019-02-25T06:28:10.010Z,-0.41
2019-02-25T06:30:40.210Z,-0.37
2019-02-25T06:33:10.409Z,-0.35
2019-02-25T06:35:40.570Z,-0.37
2019-02-25T06:38:10.785Z,-0.42
2019-02-25T06:40:41.061Z,-0.39
2019-02-25T06:43:11.278Z,-0.36
2019-02-25T06:45:41.520Z,-0.37
2019-02-25T06:48:11.743Z,-0.31
2019-02-25T06:50:42.000Z,-0.31
2019-02-25T06:53:12.208Z,-0.34
2019-02-25T06:55:42.462Z,-0.38
2019-02-25T06:58:12.670Z,-0.26
2019-02-25T07:00:43.883Z,-0.24
2019-02-25T07:03:14.076Z,-0.27
2019-02-25T07:05:48.827Z,-0.31
2019-02-25T07:08:20.600Z,-0.20
2019-02-25T07:11:08.555Z,-0.18
2019-02-25T07:13:49.108Z,-0.11
2019-02-25T07:16:23.886Z,-0.21
2019-02-25T07:19:01.619Z,-0.14
2019-02-25T07:21:42.148Z,-0.25
2019-02-25T07:24:31.769Z,-0.28
2019-02-25T07:27:06.259Z,-0.14
2019-02-25T07:29:41.004Z,-0.05
2019-02-25T07:32:12.843Z,-0.24
2019-02-25T07:34:44.624Z,-0.23
2019-02-25T07:37:19.388Z,-0.26
2019-02-25T07:39:51.146Z,-0.23
2019-02-25T07:42:37.663Z,-0.20
2019-02-25T07:45:16.902Z,-0.31
2019-02-25T07:47:48.728Z,-0.29
2019-02-25T07:50:26.546Z,-0.23
2019-02-25T07:52:58.238Z,-0.17
2019-02-25T07:55:30.012Z,-0.28
2019-02-25T07:58:16.816Z,-0.21
2019-02-25T08:00:52.449Z,-0.27
2019-02-25T08:03:26.819Z,-0.14
2019-02-25T08:06:16.594Z,-0.04
2019-02-25T08:09:04.810Z,0.14
2019-02-25T08:11:36.456Z,0.41
2019-02-25T08:14:13.601Z,0.49
2019-02-25T08:16:54.089Z,0.69
2019-02-25T08:19:40.753Z,0.82
2019-02-25T08:22:27.552Z,0.92
2019-02-25T08:25:17.719Z,0.95
2019-02-25T08:28:01.174Z,0.83
2019-02-25T08:30:34.418Z,0.99
2019-02-25T08:33:12.176Z,1.03
2019-02-25T08:36:04.892Z,1.14
2019-02-25T08:38:54.521Z,1.25
2019-02-25T08:41:29.092Z,1.50
2019-02-25T08:44:01.066Z,1.57
2019-02-25T08:46:33.032Z,1.44
2019-02-25T08:49:04.832Z,1.56
2019-02-25T08:51:35.092Z,1.68
2019-02-25T08:54:05.294Z,1.52
2019-02-25T08:56:35.611Z,1.51
2019-02-25T08:59:05.820Z,1.72
2019-02-25T09:01:37.132Z,1.47
2019-02-25T09:04:07.331Z,1.44
2019-02-25T09:06:37.604Z,1.63
2019-02-25T09:09:09.307Z,1.96
2019-02-25T09:11:40.552Z,2.34
2019-02-25T09:14:10.766Z,2.39
2019-02-25T09:16:41.490Z,2.83
2019-02-25T09:19:11.744Z,3.02
2019-02-25T09:21:42.331Z,2.95
2019-02-25T09:24:12.508Z,2.72
2019-02-25T09:26:42.790Z,2.88
2019-02-25T09:29:12.965Z,2.57
2019-02-25T09:31:43.235Z,2.24
2019-02-25T09:34:13.447Z,2.14
2019-02-25T09:36:43.705Z,2.13
2019-02-25T09:39:16.597Z,2.16
2019-02-25T09:41:46.398Z,2.67
2019-02-25T09:44:16.604Z,3.08
2019-02-25T09:46:46.933Z,3.23
2019-02-25T09:49:18.573Z,2.70
2019-02-25T09:51:49.397Z,2.77
2019-02-25T09:54:20.880Z,2.50
2019-02-25T09:56:51.295Z,2.38
2019-02-25T09:59:24.367Z,2.16
2019-02-25T10:02:06.816Z,2.09
2019-02-25T10:04:38.309Z,2.07
2019-02-25T10:07:09.477Z,2.17
2019-02-25T10:09:40.914Z,2.25
2019-02-25T10:12:13.227Z,1.98
2019-02-25T10:14:46.379Z,1.91
2019-02-25T10:17:23.486Z,1.97
2019-02-25T10:19:48.668Z,2.12
2019-02-25T10:22:18.936Z,2.06
2019-02-25T10:24:49.048Z,1.95
2019-02-25T10:27:20.838Z,1.69
2019-02-25T10:29:51.273Z,1.65
2019-02-25T10:32:25.231Z,1.62
2019-02-25T10:34:58.646Z,1.76
2019-02-25T10:37:31.023Z,1.77
2019-02-25T10:40:12.911Z,1.69
2019-02-25T10:42:48.976Z,1.68
2019-02-25T10:45:25.067Z,1.79
2019-02-25T10:47:58.595Z,1.84
2019-02-25T10:50:30.986Z,1.92
2019-02-25T10:53:03.692Z,1.68
2019-02-25T10:55:39.959Z,1.70
2019-02-25T10:58:11.102Z,1.86
2019-02-25T11:00:42.128Z,1.75
2019-02-25T11:03:15.308Z,2.04
2019-02-25T11:05:47.030Z,2.15
2019-02-25T11:08:18.931Z,2.47
2019-02-25T11:10:52.876Z,2.53
2019-02-25T11:13:22.730Z,2.38
2019-02-25T11:15:52.924Z,2.08
2019-02-25T11:18:26.650Z,1.85
2019-02-25T11:20:58.959Z,1.95
2019-02-25T11:23:29.545Z,2.01
2019-02-25T11:26:02.209Z,1.92
2019-02-25T11:28:34.344Z,1.87
2019-02-25T11:31:07.369Z,1.95
2019-02-25T11:34:15.649Z,1.84
2019-02-25T11:36:45.878Z,1.81
2019-02-25T11:39:17.115Z,1.76
2019-02-25T11:41:47.738Z,1.79
2019-02-25T11:44:21.092Z,1.83
2019-02-25T11:46:51.105Z,1.85
2019-02-25T11:49:22.871Z,1.91
2019-02-25T11:51:53.192Z,2.02
2019-02-25T11:54:24.315Z,1.99
2019-02-25T11:56:54.585Z,2.06
2019-02-25T11:59:26.409Z,1.96
2019-02-25T12:01:56.540Z,1.98
2019-02-25T12:04:30.938Z,2.06
2019-02-25T12:07:01.081Z,2.09
2019-02-25T12:09:32.874Z,2.13
2019-02-25T12:12:03.118Z,2.07
2019-02-25T12:14:33.433Z,2.12
2019-02-25T12:17:05.148Z,2.07
2019-02-25T12:19:35.319Z,2.13
2019-02-25T12:22:05.514Z,2.23
2019-02-25T12:24:38.532Z,2.09
2019-02-25T12:27:09.000Z,2.13
2019-02-25T12:29:39.676Z,2.22
2019-02-25T12:32:11.658Z,2.18
2019-02-25T12:34:41.944Z,2.14
2019-02-25T12:37:12.174Z,2.17
2019-02-25T12:39:42.382Z,2.23
2019-02-25T12:42:12.481Z,2.16
2019-02-25T12:44:42.973Z,2.30
2019-02-25T12:47:13.281Z,2.22
2019-02-25T12:49:43.652Z,2.24
2019-02-25T12:52:13.866Z,2.17
2019-02-25T12:54:44.126Z,2.29
2019-02-25T12:57:14.447Z,2.15
2019-02-25T12:59:44.799Z,2.24
2019-02-25T13:02:14.931Z,2.19
2019-02-25T13:04:45.242Z,2.15
2019-02-25T13:07:15.358Z,2.17
2019-02-25T13:09:45.850Z,2.27
2019-02-25T13:12:15.980Z,2.29
2019-02-25T13:14:46.210Z,2.17
2019-02-25T13:17:16.427Z,2.08
2019-02-25T13:19:46.779Z,2.00
2019-02-25T13:22:17.620Z,1.99
2019-02-25T13:24:49.955Z,2.02
2019-02-25T13:27:20.126Z,2.03
2019-02-25T13:29:50.504Z,2.04
2019-02-25T13:32:20.696Z,2.03
2019-02-25T13:34:51.263Z,2.13
2019-02-25T13:37:21.525Z,2.13
2019-02-25T13:39:51.931Z,2.14
2019-02-25T13:42:23.569Z,2.23
2019-02-25T13:44:53.953Z,2.26
2019-02-25T13:47:30.396Z,2.26
2019-02-25T13:50:00.739Z,2.27
2019-02-25T13:52:30.967Z,2.32
2019-02-25T13:55:01.335Z,2.38
2019-02-25T13:57:31.583Z,2.34
2019-02-25T14:00:02.215Z,2.31
2019-02-25T14:02:36.032Z,2.37
2019-02-25T14:05:06.711Z,2.48
2019-02-25T14:07:38.494Z,2.47
2019-02-25T14:10:11.516Z,2.47
2019-02-25T14:12:43.862Z,2.51
2019-02-25T14:15:23.129Z,2.59
2019-02-25T14:17:53.315Z,2.48
2019-02-25T14:20:24.874Z,2.56
2019-02-25T14:23:00.246Z,2.57
2019-02-25T14:25:33.583Z,2.46
2019-02-25T14:28:07.934Z,2.43
2019-02-25T14:30:37.465Z,2.30
2019-02-25T14:33:12.782Z,2.34
2019-02-25T14:35:59.111Z,2.34
2019-02-25T14:38:41.439Z,2.38
2019-02-25T14:41:21.075Z,2.41
2019-02-25T14:43:51.555Z,2.47
2019-02-25T14:46:24.943Z,2.33
2019-02-25T14:48:54.842Z,2.42
2019-02-25T14:51:25.183Z,2.42
2019-02-25T14:53:55.559Z,2.42
2019-02-25T14:56:26.014Z,2.48
2019-02-25T14:58:57.298Z,2.49
2019-02-25T15:01:29.852Z,2.41
2019-02-25T15:04:02.221Z,2.50
2019-02-25T15:06:34.264Z,2.52
2019-02-25T15:09:08.267Z,2.50
2019-02-25T15:11:38.184Z,2.54
2019-02-25T15:14:10.466Z,2.45
2019-02-25T15:16:40.434Z,2.38
2019-02-25T15:19:17.130Z,2.43
2019-02-25T15:21:50.097Z,2.38
2019-02-25T15:24:20.313Z,2.39
2019-02-25T15:26:51.747Z,2.41
2019-02-25T15:29:21.984Z,2.43
2019-02-25T15:31:53.038Z,2.47
2019-02-25T15:34:24.385Z,2.42
2019-02-25T15:36:56.449Z,2.44
2019-02-25T15:39:26.647Z,2.44
2019-02-25T15:42:00.815Z,2.41
2019-02-25T15:44:30.989Z,2.34
2019-02-25T15:47:02.537Z,2.32
2019-02-25T15:49:34.044Z,2.27
2019-02-25T15:52:07.877Z,2.39
2019-02-25T15:54:39.372Z,2.31
2019-02-25T15:57:10.023Z,2.30
2019-02-25T15:59:40.210Z,2.36
2019-02-25T16:02:14.093Z,2.35
2019-02-25T16:04:44.124Z,2.38
2019-02-25T16:07:15.482Z,2.44
2019-02-25T16:09:45.865Z,2.37
2019-02-25T16:12:16.111Z,2.46
2019-02-25T16:14:47.216Z,2.47
2019-02-25T16:17:18.276Z,2.51
2019-02-25T16:19:50.876Z,2.52
2019-02-25T16:22:20.510Z,2.52
2019-02-25T16:24:51.228Z,2.57
2019-02-25T16:27:23.128Z,2.49
2019-02-25T16:29:53.741Z,2.50
2019-02-25T16:32:26.231Z,2.52
2019-02-25T16:34:58.554Z,2.56
2019-02-25T16:37:29.129Z,2.59
2019-02-25T16:40:01.288Z,2.62
2019-02-25T16:42:32.416Z,2.68
2019-02-25T16:45:06.302Z,2.77
2019-02-25T16:47:37.764Z,2.63
2019-02-25T16:50:14.241Z,2.54
2019-02-25T16:52:46.844Z,2.57
2019-02-25T16:55:25.020Z,2.52
2019-02-25T16:57:54.679Z,2.50
2019-02-25T17:00:30.009Z,2.49
2019-02-25T17:03:03.482Z,2.56
2019-02-25T17:05:33.066Z,2.61
2019-02-25T17:08:04.031Z,2.52
2019-02-25T17:10:35.188Z,2.54
2019-02-25T17:13:06.358Z,2.52
2019-02-25T17:15:37.266Z,2.55
2019-02-25T17:18:07.520Z,2.46
2019-02-25T17:20:37.714Z,2.36
2019-02-25T17:23:10.092Z,2.33
2019-02-25T17:25:40.729Z,2.32
2019-02-25T17:28:15.315Z,2.32
2019-02-25T17:30:45.593Z,2.27
2019-02-25T17:33:16.517Z,2.26
2019-02-25T17:35:47.615Z,2.17
2019-02-25T17:38:20.888Z,2.07
2019-02-25T17:40:50.669Z,2.04
2019-02-25T17:43:20.895Z,2.01
2019-02-25T17:45:51.090Z,1.96
2019-02-25T17:48:21.413Z,1.79
2019-02-25T17:50:53.422Z,1.74
2019-02-25T17:53:24.491Z,1.71
2019-02-25T17:55:57.234Z,1.70
2019-02-25T17:58:27.492Z,1.59
2019-02-25T18:00:59.256Z,1.42
2019-02-25T18:03:29.635Z,1.34
2019-02-25T18:06:00.619Z,1.32
2019-02-25T18:08:32.228Z,1.33
2019-02-25T18:11:03.174Z,1.27
2019-02-25T18:13:35.260Z,1.31
2019-02-25T18:16:05.632Z,1.26
2019-02-25T18:18:36.624Z,1.21
2019-02-25T18:21:08.412Z,1.18
2019-02-25T18:23:39.314Z,1.15
2019-02-25T18:26:09.521Z,1.26
2019-02-25T18:28:41.409Z,1.16
2019-02-25T18:31:13.503Z,1.15
2019-02-25T18:33:45.845Z,1.13
2019-02-25T18:36:15.885Z,1.05
2019-02-25T18:38:48.033Z,1.05
2019-02-25T18:41:17.955Z,0.99
2019-02-25T18:43:49.398Z,1.03
2019-02-25T18:46:21.231Z,1.03
2019-02-25T18:48:51.904Z,1.02
2019-02-25T18:51:24.430Z,1.08
2019-02-25T18:53:54.877Z,1.02
2019-02-25T18:56:25.834Z,0.98
2019-02-25T18:59:07.122Z,0.91
2019-02-25T19:01:27.752Z,0.92
2019-02-25T19:03:59.038Z,0.85
2019-02-25T19:06:29.443Z,0.83
2019-02-25T19:08:59.652Z,0.83
2019-02-25T19:11:29.852Z,0.80
2019-02-25T19:14:03.184Z,0.84
2019-02-25T19:16:31.975Z,0.76
2019-02-25T19:19:03.972Z,0.78
2019-02-25T19:21:34.218Z,0.78
2019-02-25T19:24:05.578Z,0.74
2019-02-25T19:26:38.066Z,0.72
2019-02-25T19:29:09.126Z,0.72
2019-02-25T19:31:39.873Z,0.80
2019-02-25T19:34:15.456Z,0.75
2019-02-25T19:36:43.092Z,0.73
2019-02-25T19:39:14.383Z,0.84
2019-02-25T19:41:47.169Z,0.76
2019-02-25T19:44:17.180Z,0.80
2019-02-25T19:46:48.706Z,0.89
2019-02-25T19:49:20.686Z,0.95
2019-02-25T19:51:52.766Z,0.97
2019-02-25T19:54:23.018Z,0.96
2019-02-25T19:56:55.463Z,0.86
2019-02-25T19:59:26.855Z,0.93
2019-02-25T20:01:57.175Z,0.94
2019-02-25T20:04:27.481Z,0.87
2019-02-25T20:06:58.510Z,0.86
2019-02-25T20:09:29.651Z,0.96
2019-02-25T20:12:01.874Z,0.90
2019-02-25T20:14:31.905Z,0.99
2019-02-25T20:17:02.759Z,1.10
2019-02-25T20:19:33.204Z,1.03
2019-02-25T20:22:03.407Z,1.09
2019-02-25T20:24:33.636Z,1.09
2019-02-25T20:27:05.184Z,1.10
2019-02-25T20:29:36.546Z,1.14
2019-02-25T20:32:07.717Z,1.11
2019-02-25T20:34:38.173Z,1.13
2019-02-25T20:37:08.370Z,1.08
2019-02-25T20:39:40.465Z,1.11
2019-02-25T20:42:10.474Z,1.07
2019-02-25T20:44:40.582Z,1.11
2019-02-25T20:47:10.640Z,1.20
2019-02-25T20:49:40.810Z,1.30
2019-02-25T20:52:11.770Z,1.36
2019-02-25T20:54:43.727Z,1.33
2019-02-25T20:57:16.352Z,1.32
2019-02-25T20:59:48.560Z,1.32
2019-02-25T21:02:19.389Z,1.41
2019-02-25T21:04:52.145Z,1.45
2019-02-25T21:07:22.153Z,1.43
2019-02-25T21:09:52.316Z,1.47
2019-02-25T21:12:22.422Z,1.53
2019-02-25T21:14:52.655Z,1.57
2019-02-25T21:17:22.787Z,1.60
2019-02-25T21:19:52.945Z,1.59
2019-02-25T21:22:23.298Z,1.57
2019-02-25T21:24:55.894Z,1.48
2019-02-25T21:27:30.204Z,1.54
2019-02-25T21:30:01.572Z,1.53
2019-02-25T21:32:31.403Z,1.49
2019-02-25T21:35:04.175Z,1.57
2019-02-25T21:37:33.585Z,1.50
2019-02-25T21:40:05.173Z,1.40
2019-02-25T21:42:35.960Z,1.29
2019-02-25T21:45:08.622Z,1.30
2019-02-25T21:47:38.813Z,1.37
2019-02-25T21:50:11.990Z,1.42
2019-02-25T21:52:43.467Z,1.38
2019-02-25T21:55:14.567Z,1.37
2019-02-25T21:57:44.781Z,1.32
2019-02-25T22:00:23.950Z,1.35
2019-02-25T22:02:54.142Z,1.38
2019-02-25T22:05:24.381Z,1.45
2019-02-25T22:07:57.118Z,1.36
2019-02-25T22:10:26.573Z,1.40
2019-02-25T22:12:56.780Z,1.52
2019-02-25T22:15:27.040Z,1.46
2019-02-25T22:17:57.227Z,1.42
2019-02-25T22:20:27.462Z,1.38
2019-02-25T22:22:59.152Z,1.41
2019-02-25T22:25:29.599Z,1.42
2019-02-25T22:28:01.637Z,1.43
2019-02-25T22:30:32.606Z,1.44
2019-02-25T22:33:04.707Z,1.50
2019-02-25T22:35:37.378Z,1.57
2019-02-25T22:38:06.757Z,1.60
2019-02-25T22:40:38.826Z,1.61
2019-02-25T22:43:10.073Z,1.86
2019-02-25T22:45:42.021Z,1.77
2019-02-25T22:48:13.953Z,1.84
2019-02-25T22:50:44.209Z,1.90
2019-02-25T22:53:14.382Z,2.01
2019-02-25T22:55:45.376Z,2.05
2019-02-25T22:58:17.054Z,2.08
2019-02-25T23:00:50.547Z,2.12
2019-02-25T23:03:22.722Z,2.16
2019-02-25T23:05:53.451Z,2.23
2019-02-25T23:08:26.027Z,2.21
2019-02-25T23:10:56.432Z,2.19
2019-02-25T23:13:28.116Z,2.33
2019-02-25T23:15:58.583Z,2.27
2019-02-25T23:18:28.787Z,2.24
2019-02-25T23:21:01.121Z,2.27
2019-02-25T23:23:32.910Z,2.28
2019-02-25T23:26:02.765Z,2.37
2019-02-25T23:28:32.897Z,2.38
2019-02-25T23:31:04.260Z,2.38
2019-02-25T23:33:38.155Z,2.39
2019-02-25T23:36:08.394Z,2.37
2019-02-25T23:38:38.529Z,2.38
2019-02-25T23:41:09.998Z,2.28
2019-02-25T23:43:42.271Z,2.29
2019-02-25T23:46:12.358Z,2.30
2019-02-25T23:48:44.621Z,2.27
2019-02-25T23:51:16.541Z,2.23
2019-02-25T23:53:47.048Z,2.29
2019-02-25T23:56:22.594Z,2.25
2019-02-25T23:58:51.794Z,2.27
